Time;durP1;ratioP1;P1;durP2;ratioP2;P2;SDS_P1;SDS_P2;PMS_P1;PMS_P2;Temp;Humidity;BMP_temperature;BMP_pressure;BME280_temperature;BME280_humidity;BME280_pressure;Samples;Min_cycle;Max_cycle;Signal;HPM_P1;HPM_P2
2023/08/09 00:00:49;;;;;;;8.88;2.58;;;;;;;;;;5025607;28;20782;-78
2023/08/09 00:03:15;;;;;;;7.10;2.72;;;;;;;;;;5039598;28;20478;-77
2023/08/09 00:05:41;;;;;;;5.43;2.40;;;;;;;;;;5071083;28;20502;-77
2023/08/09 00:08:08;;;;;;;4.82;2.03;;;;;;;;;;5040156;28;20403;-77
2023/08/09 00:10:34;;;;;;;6.32;2.17;;;;;;;;;;5036929;28;20416;-77
2023/08/09 00:13:01;;;;;;;5.30;2.40;;;;;;;;;;5020950;28;20424;-77
2023/08/09 00:15:27;;;;;;;6.88;2.70;;;;;;;;;;5046157;28;20473;-77
2023/08/09 00:17:53;;;;;;;13.77;2.50;;;;;;;;;;5040786;28;20400;-76
2023/08/09 00:20:22;;;;;;;6.40;2.47;;;;;;;;;;5040857;28;20445;-77
2023/08/09 00:22:49;;;;;;;5.97;2.42;;;;;;;;;;5040317;28;20468;-77
2023/08/09 00:25:15;;;;;;;7.07;2.50;;;;;;;;;;5029679;28;20417;-77
2023/08/09 00:27:42;;;;;;;5.13;2.55;;;;;;;;;;5037505;28;20405;-77
2023/08/09 00:30:11;;;;;;;6.15;2.42;;;;;;;;;;5054885;28;20400;-77
2023/08/09 00:32:38;;;;;;;5.57;2.58;;;;;;;;;;5036871;28;20425;-78
2023/08/09 00:35:05;;;;;;;8.35;3.10;;;;;;;;;;5057463;28;20500;-77
2023/08/09 00:37:31;;;;;;;7.75;2.60;;;;;;;;;;5040609;28;20759;-77
2023/08/09 00:39:57;;;;;;;4.82;2.80;;;;;;;;;;5056750;28;20406;-76
2023/08/09 00:42:23;;;;;;;8.20;2.60;;;;;;;;;;5052838;28;20449;-78
2023/08/09 00:44:50;;;;;;;6.93;2.80;;;;;;;;;;5021020;28;20421;-77
2023/08/09 00:47:16;;;;;;;6.07;2.72;;;;;;;;;;5036922;28;20488;-77
2023/08/09 00:49:42;;;;;;;6.97;2.40;;;;;;;;;;5066946;28;20419;-77
2023/08/09 00:52:08;;;;;;;7.53;2.80;;;;;;;;;;5054816;28;20456;-77
2023/08/09 00:54:36;;;;;;;5.53;2.60;;;;;;;;;;5033121;28;20492;-77
2023/08/09 00:57:02;;;;;;;5.65;2.80;;;;;;;;;;5020751;28;20413;-78
2023/08/09 00:59:28;;;;;;;7.38;2.80;;;;;;;;;;5020336;28;20401;-78
2023/08/09 01:01:54;;;;;;;6.93;2.80;;;;;;;;;;5051974;28;20430;-78
2023/08/09 01:04:20;;;;;;;8.27;3.05;;;;;;;;;;5035477;28;20939;-77
2023/08/09 01:06:49;;;;;;;5.15;2.63;;;;;;;;;;5038644;28;20485;-77
2023/08/09 01:09:24;;;;;;;6.55;2.88;;;;;;;;;;5056590;28;20408;-77
2023/08/09 01:11:59;;;;;;;7.45;3.00;;;;;;;;;;5045696;28;20433;-77
2023/08/09 01:14:28;;;;;;;5.32;2.75;;;;;;;;;;5036880;28;20887;-77
2023/08/09 01:16:54;;;;;;;7.13;3.10;;;;;;;;;;5073073;28;20494;-77
2023/08/09 01:19:36;;;;;;;6.60;3.25;;;;;;;;;;5073988;28;20407;-77
2023/08/09 01:22:04;;;;;;;7.23;3.10;;;;;;;;;;5056145;28;20415;-78
2023/08/09 01:24:31;;;;;;;11.10;3.00;;;11.50;99.90;;;;;;5033351;28;20427;-82
2023/08/09 01:26:58;;;;;;;7.45;2.97;;;11.30;99.90;;;;;;5051791;28;20467;-82
2023/08/09 01:29:24;;;;;;;6.97;3.15;;;11.40;99.90;;;;;;5044658;28;20456;-82
2023/08/09 01:31:51;;;;;;;7.28;2.90;;;11.50;99.90;;;;;;5037943;28;20424;-82
2023/08/09 01:34:17;;;;;;;5.45;2.85;;;;;;;;;;5051507;28;20416;-83
2023/08/09 01:36:47;;;;;;;7.13;3.20;;;11.50;99.90;;;;;;5037579;28;20421;-80
2023/08/09 01:39:20;;;;;;;6.95;3.10;;;11.30;99.90;;;;;;5036122;28;20401;-82
2023/08/09 01:41:47;;;;;;;7.38;3.33;;;11.30;99.90;;;;;;5019596;28;20820;-81
2023/08/09 01:44:13;;;;;;;7.68;3.20;;;11.40;99.90;;;;;;5045187;28;20429;-81
2023/08/09 01:46:40;;;;;;;7.65;2.90;;;11.30;99.90;;;;;;5034041;28;20423;-82
2023/08/09 01:49:14;;;;;;;7.07;3.38;;;11.50;99.90;;;;;;5036467;28;20430;-82
2023/08/09 01:51:40;;;;;;;5.75;3.20;;;;;;;;;;5050764;28;20520;-81
2023/08/09 01:54:07;;;;;;;8.00;3.58;;;11.10;99.90;;;;;;5016577;28;20796;-82
2023/08/09 01:56:34;;;;;;;9.30;3.28;;;;;;;;;;5035685;28;20424;-82
2023/08/09 01:59:00;;;;;;;6.78;3.50;;;;;;;;;;5019308;28;20406;-82
2023/08/09 02:01:26;;;;;;;10.02;3.17;;;;;;;;;;5014546;28;20856;-82
2023/08/09 02:03:53;;;;;;;5.88;3.30;;;;;;;;;;5016577;28;20435;-82
2023/08/09 02:06:18;;;;;;;9.10;3.30;;;11.20;99.90;;;;;;5016158;28;20464;-81
2023/08/09 02:08:45;;;;;;;7.13;3.50;;;;;;;;;;5036148;28;20827;-82
2023/08/09 02:11:10;;;;;;;7.05;3.40;;;11.20;99.90;;;;;;5015140;28;20506;-82
2023/08/09 02:13:37;;;;;;;7.38;3.33;;;11.30;99.90;;;;;;5021617;28;20519;-82
2023/08/09 02:16:05;;;;;;;7.70;3.25;;;11.30;99.90;;;;;;5001256;28;20422;-82
2023/08/09 02:18:31;;;;;;;6.73;3.10;;;;;;;;;;5018089;28;20562;-82
2023/08/09 02:20:59;;;;;;;7.45;3.65;;;;;;;;;;5015162;28;20434;-82
2023/08/09 02:23:25;;;;;;;7.80;3.53;;;11.30;99.90;;;;;;5012371;28;20809;-82
2023/08/09 02:25:55;;;;;;;10.10;3.40;;;;;;;;;;5017979;28;20501;-82
2023/08/09 02:28:21;;;;;;;6.03;3.38;;;;;;;;;;5017963;28;20440;-82
2023/08/09 02:30:49;;;;;;;6.40;3.53;;;;;;;;;;5014146;28;20423;-82
2023/08/09 02:33:15;;;;;;;7.33;3.60;;;10.90;99.90;;;;;;5010467;28;20537;-82
2023/08/09 02:35:51;;;;;;;6.35;3.20;;;10.90;99.90;;;;;;5034634;28;20435;-82
2023/08/09 02:38:18;;;;;;;6.30;3.30;;;;;;;;;;5042695;28;20761;-82
2023/08/09 02:40:44;;;;;;;7.57;3.85;;;;;;;;;;5053997;28;20415;-81
2023/08/09 02:43:09;;;;;;;7.25;3.50;;;10.90;99.90;;;;;;5003233;28;20928;-81
2023/08/09 02:45:35;;;;;;;6.82;3.40;;;11.00;99.90;;;;;;5033954;28;20484;-81
2023/08/09 02:48:01;;;;;;;6.07;3.40;;;;;;;;;;5018378;28;20402;-81
2023/08/09 02:50:27;;;;;;;6.00;3.35;;;10.90;99.90;;;;;;5030664;28;20422;-81
2023/08/09 02:52:53;;;;;;;6.30;3.40;;;;;;;;;;5014783;28;20910;-81
2023/08/09 02:55:19;;;;;;;8.60;3.58;;;10.80;99.90;;;;;;5032297;28;20418;-81
2023/08/09 02:57:45;;;;;;;5.83;3.63;;;;;;;;;;5002311;28;20422;-82
2023/08/09 03:00:15;;;;;;;6.90;3.60;;;;;;;;;;5017421;28;20405;-82
2023/08/09 03:02:41;;;;;;;6.68;4.00;;;;;;;;;;5014478;28;20477;-82
2023/08/09 03:05:08;;;;;;;7.38;3.80;;;;;;;;;;5006299;28;20437;-82
2023/08/09 03:07:35;;;;;;;5.90;3.70;;;;;;;;;;5018130;28;20410;-82
2023/08/09 03:10:03;;;;;;;11.05;3.70;;;;;;;;;;5027895;28;20429;-82
2023/08/09 03:12:29;;;;;;;6.40;3.63;;;;;;;;;;5012387;28;20425;-82
2023/08/09 03:14:55;;;;;;;7.18;3.38;;;10.80;99.90;;;;;;5004387;28;20422;-81
2023/08/09 03:17:21;;;;;;;6.78;3.50;;;;;;;;;;5014093;28;21124;-81
2023/08/09 03:19:49;;;;;;;7.90;3.65;;;10.70;99.90;;;;;;5030447;28;20413;-82
2023/08/09 03:22:16;;;;;;;7.47;3.70;;;10.80;99.90;;;;;;5014398;28;20803;-80
2023/08/09 03:24:41;;;;;;;10.20;4.00;;;10.70;99.90;;;;;;5017136;28;20425;-81
2023/08/09 03:27:08;;;;;;;7.40;4.13;;;;;;;;;;4996740;28;20426;-81
2023/08/09 03:29:34;;;;;;;7.18;3.90;;;;;;;;;;5019116;28;20419;-81
2023/08/09 03:32:00;;;;;;;9.10;3.83;;;;;;;;;;4994035;28;20486;-81
2023/08/09 03:34:26;;;;;;;8.68;4.38;;;;;;;;;;5030782;28;20418;-82
2023/08/09 03:36:52;;;;;;;6.03;3.58;;;;;;;;;;5005077;28;20494;-81
2023/08/09 03:39:18;;;;;;;7.88;3.92;;;;;;;;;;5015569;28;20425;-81
2023/08/09 03:41:44;;;;;;;6.23;3.70;;;10.40;99.90;;;;;;5032500;28;20486;-81
2023/08/09 03:44:10;;;;;;;6.37;4.03;;;10.70;99.90;;;;;;5001033;28;20420;-81
2023/08/09 03:46:36;;;;;;;6.10;4.00;;;;;;;;;;5048686;28;20880;-81
2023/08/09 03:49:02;;;;;;;8.07;4.10;;;10.60;99.90;;;;;;5026033;28;20431;-81
2023/08/09 03:51:28;;;;;;;7.60;3.90;;;;;;;;;;5054241;28;20419;-82
2023/08/09 03:53:54;;;;;;;6.97;4.00;;;;;;;;;;5053732;28;20400;-81
2023/08/09 03:56:20;;;;;;;7.90;4.38;;;;;;;;;;5032582;28;21558;-82
2023/08/09 03:58:46;;;;;;;7.68;3.78;;;;;;;;;;5029981;28;20928;-81
2023/08/09 04:01:13;;;;;;;7.88;4.00;;;;;;;;;;5034060;28;20424;-81
2023/08/09 04:03:39;;;;;;;7.35;4.07;;;;;;;;;;5037604;28;20415;-81
2023/08/09 04:06:05;;;;;;;7.82;3.90;;;;;;;;;;5049318;28;20422;-81
2023/08/09 04:08:32;;;;;;;9.13;4.05;;;;;;;;;;5008007;28;20443;-82
2023/08/09 04:10:59;;;;;;;8.27;3.88;;;;;;;;;;5052164;28;20485;-82
2023/08/09 04:13:25;;;;;;;7.50;3.78;;;10.60;99.90;;;;;;5053094;28;20416;-81
2023/08/09 04:15:52;;;;;;;7.03;3.95;;;;;;;;;;5039787;28;20417;-82
2023/08/09 04:18:18;;;;;;;5.65;3.72;;;;;;;;;;5063368;28;20420;-82
2023/08/09 04:20:45;;;;;;;8.18;3.83;;;10.50;99.90;;;;;;5049945;28;20428;-82
2023/08/09 04:23:12;;;;;;;7.30;3.95;;;10.40;99.90;;;;;;5047128;28;20442;-81
2023/08/09 04:25:38;;;;;;;6.80;3.90;;;;;;;;;;5017536;28;20436;-81
2023/08/09 04:28:04;;;;;;;9.00;3.90;;;;;;;;;;5035599;28;20415;-81
2023/08/09 04:30:31;;;;;;;6.45;3.63;;;;;;;;;;5048708;28;20424;-81
2023/08/09 04:32:57;;;;;;;5.00;3.38;;;;;;;;;;5033407;28;21097;-80
2023/08/09 04:35:23;;;;;;;5.93;3.53;;;;;;;;;;5047030;28;20496;-81
2023/08/09 04:37:49;;;;;;;6.47;3.55;;;;;;;;;;5028507;28;20945;-82
2023/08/09 04:40:15;;;;;;;8.67;3.63;;;10.60;99.90;;;;;;5032401;28;20424;-82
2023/08/09 04:42:41;;;;;;;5.77;3.50;;;10.60;99.90;;;;;;5033894;28;20421;-82
2023/08/09 04:45:12;;;;;;;7.25;3.80;;;;;;;;;;5033614;28;20404;-81
2023/08/09 04:47:38;;;;;;;5.85;3.30;;;10.50;99.90;;;;;;5026469;28;20815;-82
2023/08/09 04:50:05;;;;;;;5.88;3.65;;;;;;;;;;5053079;28;20927;-81
2023/08/09 04:52:33;;;;;;;8.40;3.77;;;10.70;99.90;;;;;;5052736;28;20487;-81
2023/08/09 04:54:59;;;;;;;6.70;3.50;;;;;;;;;;5024475;28;20408;-81
2023/08/09 04:57:26;;;;;;;7.53;3.50;;;;;;;;;;5046941;28;20456;-80
2023/08/09 04:59:52;;;;;;;5.95;3.58;;;;;;;;;;5027473;28;20425;-81
2023/08/09 05:02:18;;;;;;;6.20;3.97;;;;;;;;;;5032201;28;20461;-82
2023/08/09 05:04:44;;;;;;;6.57;4.03;;;11.00;99.90;;;;;;5004148;28;20433;-82
2023/08/09 05:07:10;;;;;;;6.88;4.05;;;11.20;99.90;;;;;;5030497;28;20464;-82
2023/08/09 05:09:36;;;;;;;7.88;4.20;;;;;;;;;;5024888;28;20513;-82
2023/08/09 05:12:02;;;;;;;7.40;4.20;;;;;;;;;;5031603;28;20427;-80
2023/08/09 05:14:28;;;;;;;9.40;4.03;;;;;;;;;;5027565;28;20426;-81
2023/08/09 05:16:54;;;;;;;7.80;4.00;;;;;;;;;;5039013;28;20406;-80
2023/08/09 05:19:21;;;;;;;7.47;4.10;;;;;;;;;;5016355;28;20413;-81
2023/08/09 05:21:47;;;;;;;11.55;4.63;;;;;;;;;;5044109;28;20423;-81
2023/08/09 05:24:14;;;;;;;7.55;4.03;;;11.50;99.90;;;;;;5039197;28;20506;-81
2023/08/09 05:26:40;;;;;;;7.70;4.00;;;11.40;99.90;;;;;;5031672;28;20466;-81
2023/08/09 05:29:05;;;;;;;6.20;3.95;;;11.60;99.90;;;;;;5052850;28;20832;-80
2023/08/09 05:31:31;;;;;;;6.72;4.00;;;11.70;99.90;;;;;;5034775;28;20420;-81
2023/08/09 05:33:58;;;;;;;8.73;4.10;;;11.80;99.90;;;;;;5038861;28;20416;-81
2023/08/09 05:36:24;;;;;;;7.00;4.03;;;;;;;;;;5049129;28;20421;-81
2023/08/09 05:38:50;;;;;;;8.75;4.20;;;;;;;;;;5049312;28;20416;-81
2023/08/09 05:41:16;;;;;;;7.85;4.03;;;11.90;99.90;;;;;;5022262;28;20852;-81
2023/08/09 05:43:42;;;;;;;7.65;4.00;;;12.10;99.90;;;;;;5044089;28;20420;-82
2023/08/09 05:46:08;;;;;;;6.60;3.80;;;12.20;99.90;;;;;;5020989;28;20457;-81
2023/08/09 05:48:34;;;;;;;7.17;3.50;;;;;;;;;;5021971;28;20416;-81
2023/08/09 05:51:00;;;;;;;6.07;3.50;;;12.40;99.90;;;;;;5047658;28;20432;-82
2023/08/09 05:53:26;;;;;;;6.90;3.58;;;;;;;;;;5036487;28;20434;-81
2023/08/09 05:55:52;;;;;;;6.47;3.40;;;;;;;;;;5039197;28;20492;-82
2023/08/09 05:58:20;;;;;;;6.28;3.20;;;12.60;99.90;;;;;;5042066;28;20428;-82
2023/08/09 06:00:46;;;;;;;6.50;3.50;;;12.80;99.90;;;;;;5021114;28;20607;-81
2023/08/09 06:03:12;;;;;;;7.25;3.17;;;12.90;99.90;;;;;;5049300;28;20940;-82
2023/08/09 06:05:38;;;;;;;6.18;3.20;;;13.00;99.90;;;;;;5070487;28;20400;-81
2023/08/09 06:08:04;;;;;;;8.55;3.20;;;13.30;99.90;;;;;;5059312;28;20500;-81
2023/08/09 06:10:30;;;;;;;4.72;2.67;;;13.20;99.90;;;;;;5036227;28;20506;-82
2023/08/09 06:12:56;;;;;;;4.70;2.60;;;13.20;99.90;;;;;;5029808;28;20424;-82
2023/08/09 06:15:21;;;;;;;6.57;2.55;;;13.60;99.90;;;;;;5036043;28;20901;-80
2023/08/09 06:17:48;;;;;;;5.13;2.70;;;13.70;99.90;;;;;;5040636;28;20806;-81
2023/08/09 06:20:14;;;;;;;6.60;2.30;;;13.80;99.90;;;;;;5036440;28;20396;-81
2023/08/09 06:22:40;;;;;;;4.63;2.22;;;14.00;99.90;;;;;;5049189;28;20421;-82
2023/08/09 06:25:08;;;;;;;6.22;2.40;;;13.90;99.90;;;;;;5050609;28;20423;-82
2023/08/09 06:27:34;;;;;;;6.90;2.50;;;14.10;99.90;;;;;;5058184;28;20410;-82
2023/08/09 06:30:00;;;;;;;5.10;2.20;;;14.30;99.90;;;;;;5049424;28;20930;-82
2023/08/09 06:32:27;;;;;;;3.90;1.98;;;14.30;99.90;;;;;;5048810;28;20470;-82
2023/08/09 06:34:52;;;;;;;6.13;2.25;;;14.50;99.90;;;;;;5055298;28;20413;-82
2023/08/09 06:37:18;;;;;;;6.32;2.03;;;14.70;99.90;;;;;;5034711;28;21026;-81
2023/08/09 06:39:44;;;;;;;5.18;2.10;;;14.80;99.90;;;;;;5039846;28;20400;-80
2023/08/09 06:42:12;;;;;;;4.97;1.80;;;14.80;99.90;;;;;;5029330;28;20425;-80
2023/08/09 06:44:38;;;;;;;5.13;1.70;;;15.20;99.90;;;;;;5018557;28;20417;-82
2023/08/09 06:47:04;;;;;;;6.15;1.40;;;15.20;99.90;;;;;;5025280;28;20421;-85
2023/08/09 06:49:30;;;;;;;5.53;1.90;;;15.30;99.90;;;;;;5052037;28;20923;-83
2023/08/09 06:51:58;;;;;;;6.93;1.67;;;15.20;99.90;;;;;;5063510;28;20514;-83
2023/08/09 06:54:24;;;;;;;5.50;1.80;;;15.40;99.90;;;;;;5047251;28;20407;-84
2023/08/09 06:56:50;;;;;;;4.43;1.80;;;15.70;99.90;;;;;;5046436;28;20415;-82
2023/08/09 06:59:16;;;;;;;4.10;1.80;;;15.80;99.90;;;;;;5028836;28;20424;-81
2023/08/09 07:01:44;;;;;;;4.33;1.60;;;16.00;99.90;;;;;;5044283;28;20451;-80
2023/08/09 07:04:10;;;;;;;3.97;1.60;;;16.20;99.90;;;;;;5051318;28;20430;-81
2023/08/09 07:06:35;;;;;;;4.70;1.80;;;16.10;99.90;;;;;;5048493;28;20419;-79
2023/08/09 07:09:01;;;;;;;4.72;1.83;;;16.20;99.90;;;;;;5051243;28;20504;-80
2023/08/09 07:11:27;;;;;;;10.35;1.73;;;16.20;99.90;;;;;;5032010;28;20468;-81
2023/08/09 07:13:52;;;;;;;3.58;1.40;;;16.50;99.90;;;;;;5043701;28;20436;-80
2023/08/09 07:16:18;;;;;;;5.07;1.50;;;16.50;99.90;;;;;;5040322;28;20469;-80
2023/08/09 07:18:44;;;;;;;4.17;1.50;;;16.60;99.90;;;;;;5029753;28;20557;-81
2023/08/09 07:21:10;;;;;;;3.15;1.40;;;16.80;99.90;;;;;;5034905;28;20760;-81
2023/08/09 07:23:35;;;;;;;4.07;1.33;;;16.80;99.90;;;;;;5048326;28;20432;-81
2023/08/09 07:26:04;;;;;;;3.72;1.40;;;17.00;99.90;;;;;;5037114;28;20425;-81
2023/08/09 07:28:31;;;;;;;4.70;1.50;;;16.90;99.90;;;;;;5025775;28;20498;-76
2023/08/09 07:30:56;;;;;;;2.67;1.25;;;17.10;99.90;;;;;;5046828;28;20432;-80
2023/08/09 07:33:22;;;;;;;3.53;1.30;;;17.20;99.90;;;;;;5041145;28;20945;-80
2023/08/09 07:35:48;;;;;;;3.22;1.10;;;17.40;99.90;;;;;;5041434;28;20415;-81
2023/08/09 07:38:15;;;;;;;3.83;1.60;;;17.70;99.90;;;;;;5033317;28;20476;-80
2023/08/09 07:40:41;;;;;;;3.00;1.20;;;17.50;99.90;;;;;;5034872;28;20421;-81
2023/08/09 07:43:07;;;;;;;4.00;1.30;;;17.70;99.90;;;;;;5052980;28;20943;-80
2023/08/09 07:45:33;;;;;;;4.17;1.40;;;17.80;99.90;;;;;;5035929;28;20425;-80
2023/08/09 07:47:59;;;;;;;3.73;1.30;;;17.70;99.90;;;;;;5022802;28;20501;-80
2023/08/09 07:50:25;;;;;;;4.60;1.40;;;17.80;99.90;;;;;;5029856;28;20465;-81
2023/08/09 07:52:51;;;;;;;2.70;1.10;;;18.20;99.90;;;;;;5007852;28;20426;-79
2023/08/09 07:55:18;;;;;;;3.27;1.27;;;18.10;99.90;;;;;;5034721;28;20416;-79
2023/08/09 07:57:44;;;;;;;2.72;1.25;;;18.20;99.90;;;;;;5051051;28;20419;-78
2023/08/09 08:00:14;;;;;;;4.13;1.27;;;18.00;99.90;;;;;;5065364;28;20421;-77
2023/08/09 08:02:42;;;;;;;4.60;1.50;;;18.10;99.90;;;;;;5029043;28;20421;-78
2023/08/09 08:05:11;;;;;;;2.40;1.10;;;18.20;99.90;;;;;;5040435;28;20430;-77
2023/08/09 08:07:38;;;;;;;4.35;1.40;;;18.20;99.90;;;;;;5053934;28;20420;-78
2023/08/09 08:10:05;;;;;;;4.25;1.30;;;18.20;99.90;;;;;;5036119;28;20462;-77
2023/08/09 08:12:31;;;;;;;3.05;1.20;;;18.30;99.90;;;;;;5037524;28;20439;-79
2023/08/09 08:14:56;;;;;;;2.85;1.20;;;18.70;99.90;;;;;;5043209;28;20480;-79
2023/08/09 08:17:22;;;;;;;4.88;1.20;;;18.70;99.90;;;;;;5032903;28;20409;-78
2023/08/09 08:19:50;;;;;;;3.47;1.20;;;18.60;99.90;;;;;;5049320;28;20959;-78
2023/08/09 08:22:16;;;;;;;3.28;1.23;;;18.80;99.90;;;;;;5045203;28;20419;-78
2023/08/09 08:24:42;;;;;;;2.55;1.20;;;18.90;99.90;;;;;;5038354;28;20422;-78
2023/08/09 08:27:08;;;;;;;1.88;1.00;;;18.80;99.90;;;;;;5039753;28;20403;-78
2023/08/09 08:29:33;;;;;;;1.77;1.10;;;19.00;99.90;;;;;;5020219;28;20445;-78
2023/08/09 08:31:59;;;;;;;3.50;1.20;;;19.30;99.90;;;;;;5047672;28;20419;-78
2023/08/09 08:34:31;;;;;;;2.78;1.10;;;19.50;99.90;;;;;;5054486;28;20990;-80
2023/08/09 08:36:58;;;;;;;3.40;1.20;;;19.40;99.90;;;;;;5048774;28;20792;-81
2023/08/09 08:39:24;;;;;;;2.92;1.00;;;19.40;99.90;;;;;;5036276;28;20417;-83
2023/08/09 08:41:51;;;;;;;3.20;1.38;;;19.40;99.90;;;;;;5049378;28;20516;-80
2023/08/09 08:44:17;;;;;;;3.35;1.40;;;19.10;99.90;;;;;;5071639;28;20451;-79
2023/08/09 08:46:43;;;;;;;2.35;1.10;;;19.00;99.90;;;;;;5040870;28;20459;-78
2023/08/09 08:49:17;;;;;;;3.28;1.17;;;19.00;99.90;;;;;;5039665;28;20407;-79
2023/08/09 08:51:47;;;;;;;4.37;1.20;;;19.20;99.90;;;;;;5050044;28;20431;-80
2023/08/09 08:54:13;;;;;;;3.53;1.30;;;19.50;99.90;;;;;;5048728;28;20822;-80
2023/08/09 08:56:39;;;;;;;2.58;1.20;;;19.50;99.90;;;;;;5030262;28;20893;-80
2023/08/09 08:59:06;;;;;;;3.60;1.42;;;19.70;99.90;;;;;;5050335;28;20415;-82
2023/08/09 09:01:33;;;;;;;2.05;1.00;;;19.70;99.90;;;;;;5059450;28;20436;-80
2023/08/09 09:03:58;;;;;;;2.75;1.17;;;20.00;99.90;;;;;;5047621;28;20417;-79
2023/08/09 09:06:24;;;;;;;4.15;1.40;;;19.80;99.90;;;;;;5031464;28;20423;-80
2023/08/09 09:08:57;;;;;;;3.10;1.20;;;19.80;99.90;;;;;;5038518;28;20423;-80
2023/08/09 09:11:23;;;;;;;2.90;1.10;;;20.00;99.90;;;;;;5049015;28;20880;-79
2023/08/09 09:13:50;;;;;;;4.30;1.27;;;19.80;99.90;;;;;;5029998;28;20421;-80
2023/08/09 09:16:20;;;;;;;2.85;1.20;;;20.20;99.90;;;;;;5019218;28;20960;-79
2023/08/09 09:18:48;;;;;;;3.10;1.20;;;19.90;99.90;;;;;;5036367;28;20405;-80
2023/08/09 09:21:18;;;;;;;3.13;1.17;;;20.00;99.90;;;;;;5047382;28;20904;-80
2023/08/09 09:23:44;;;;;;;3.50;1.02;;;20.00;99.90;;;;;;5038055;28;20426;-79
2023/08/09 09:26:15;;;;;;;3.80;1.20;;;20.20;99.90;;;;;;5024225;28;20516;-79
2023/08/09 09:28:45;;;;;;;3.30;1.30;;;20.40;99.90;;;;;;5050282;28;20464;-79
2023/08/09 09:31:14;;;;;;;2.63;1.10;;;20.40;99.90;;;;;;5050155;28;20461;-80
2023/08/09 09:33:54;;;;;;;2.63;1.10;;;20.10;99.90;;;;;;5067932;28;20424;-79
2023/08/09 09:36:20;;;;;;;3.58;1.30;;;20.40;99.90;;;;;;5024178;28;20428;-79
2023/08/09 09:38:52;;;;;;;2.27;1.20;;;18.40;99.90;;;;;;5048247;28;20417;-78
2023/08/09 09:41:18;;;;;;;4.10;1.20;;;20.80;99.90;;;;;;5042108;28;20431;-79
2023/08/09 09:43:46;;;;;;;2.43;1.10;;;21.20;99.90;;;;;;5016954;28;22321;-79
2023/08/09 09:46:19;;;;;;;3.23;1.10;;;21.20;99.90;;;;;;5032040;28;20474;-80
2023/08/09 09:48:59;;;;;;;3.35;1.20;;;21.00;99.90;;;;;;5052316;28;20434;-79
2023/08/09 09:51:26;;;;;;;3.28;1.20;;;20.80;99.90;;;;;;5053319;28;20426;-81
2023/08/09 09:53:52;;;;;;;3.85;1.30;;;20.60;99.90;;;;;;5054707;28;20396;-81
2023/08/09 09:56:20;;;;;;;2.78;1.00;;;20.40;99.90;;;;;;5045030;28;20783;-81
2023/08/09 09:58:47;;;;;;;2.33;1.10;;;20.40;99.90;;;;;;5071299;28;20415;-81
2023/08/09 10:01:19;;;;;;;2.20;1.10;;;20.60;99.90;;;;;;5047067;28;20412;-80
2023/08/09 10:03:45;;;;;;;3.28;1.10;;;21.00;99.90;;;;;;5073964;28;20427;-80
2023/08/09 10:06:31;;;;;;;2.85;1.20;;;21.30;99.90;;;;;;5045448;28;20750;-81
2023/08/09 10:09:00;;;;;;;3.30;1.30;;;21.50;99.90;;;;;;5056301;28;20411;-81
2023/08/09 10:11:28;;;;;;;3.30;1.30;;;21.40;99.90;;;;;;5067522;28;20439;-81
2023/08/09 10:13:57;;;;;;;2.70;1.10;;;21.20;99.90;;;;;;5021554;28;20430;-81
2023/08/09 10:16:25;;;;;;;4.05;1.30;;;21.00;99.90;;;;;;5021414;28;20471;-81
2023/08/09 10:19:00;;;;;;;2.42;1.10;;;20.80;99.90;;;;;;5035427;28;20429;-82
2023/08/09 10:21:26;;;;;;;3.50;1.15;;;21.00;99.90;;;;;;5047453;28;20949;-81
2023/08/09 10:23:57;;;;;;;3.37;1.33;;;20.90;99.90;;;;;;5020506;28;21045;-82
2023/08/09 10:26:32;;;;;;;2.22;1.10;;;21.00;99.90;;;;;;5019592;28;20409;-82
2023/08/09 10:29:22;;;;;;;2.17;1.10;;;21.40;99.90;;;;;;5019341;28;20793;-81
2023/08/09 10:31:49;;;;;;;3.72;1.15;;;21.30;99.90;;;;;;5031747;28;20456;-81
2023/08/09 10:34:16;;;;;;;4.20;1.00;;;21.60;99.90;;;;;;5051724;28;20445;-81
2023/08/09 10:36:43;;;;;;;2.92;1.23;;;21.70;99.90;;;;;;5047669;28;20417;-79
2023/08/09 10:39:18;;;;;;;2.17;1.10;;;21.60;99.90;;;;;;5054424;28;20469;-80
2023/08/09 10:42:07;;;;;;;2.30;1.25;;;21.60;99.90;;;;;;5035085;28;20420;-79
2023/08/09 10:44:38;;;;;;;2.55;1.17;;;21.50;99.90;;;;;;5054197;28;20400;-80
2023/08/09 10:47:09;;;;;;;2.00;1.17;;;21.50;99.90;;;;;;5035854;28;20428;-80
2023/08/09 10:49:44;;;;;;;2.67;1.05;;;21.50;99.90;;;;;;5052655;28;20760;-80
2023/08/09 10:52:18;;;;;;;3.08;1.30;;;21.50;99.90;;;;;;5037496;28;20477;-79
2023/08/09 10:54:46;;;;;;;1.70;1.08;;;21.80;99.90;;;;;;5016720;28;20831;-80
2023/08/09 10:57:12;;;;;;;3.38;1.35;;;21.70;99.90;;;;;;5015300;28;20932;-80
2023/08/09 10:59:39;;;;;;;2.13;1.10;;;21.70;99.90;;;;;;5023351;28;20657;-80
2023/08/09 11:02:08;;;;;;;4.93;1.48;;;21.60;99.90;;;;;;5006979;28;20986;-80
2023/08/09 11:04:34;;;;;;;2.42;1.20;;;21.80;99.90;;;;;;5043054;28;20457;-80
2023/08/09 11:07:01;;;;;;;2.83;1.20;;;21.80;99.90;;;;;;5032812;28;20452;-79
2023/08/09 11:09:29;;;;;;;3.13;1.20;;;21.80;99.90;;;;;;5016826;28;20479;-80
2023/08/09 11:11:55;;;;;;;2.88;1.20;;;21.60;99.90;;;;;;5031340;28;20462;-80
2023/08/09 11:14:22;;;;;;;3.58;1.40;;;21.40;99.90;;;;;;5027687;28;20449;-81
2023/08/09 11:16:50;;;;;;;4.38;1.20;;;21.10;99.90;;;;;;5012345;28;20895;-80
2023/08/09 11:19:16;;;;;;;3.05;1.20;;;21.10;99.90;;;;;;5011330;28;20429;-80
2023/08/09 11:21:50;;;;;;;2.30;1.10;;;21.10;99.90;;;;;;5009684;28;20428;-80
2023/08/09 11:24:19;;;;;;;2.80;1.30;;;21.30;99.90;;;;;;5028399;28;20472;-79
2023/08/09 11:26:55;;;;;;;3.00;1.30;;;21.60;99.90;;;;;;5014175;28;20422;-79
2023/08/09 11:29:25;;;;;;;3.15;1.27;;;21.60;99.90;;;;;;5024472;28;20924;-80
2023/08/09 11:31:54;;;;;;;3.75;1.40;;;22.20;99.90;;;;;;5031973;28;20422;-79
2023/08/09 11:34:21;;;;;;;3.92;1.20;;;22.30;99.90;;;;;;5022980;28;20419;-79
2023/08/09 11:36:49;;;;;;;2.55;1.20;;;22.00;99.90;;;;;;5021269;28;20917;-80
2023/08/09 11:39:15;;;;;;;3.42;1.42;;;22.10;99.90;;;;;;5028825;28;20413;-79
2023/08/09 11:41:46;;;;;;;3.28;1.30;;;22.20;99.90;;;;;;5010522;28;20417;-78
2023/08/09 11:44:14;;;;;;;2.90;1.30;;;21.90;99.90;;;;;;5029029;28;20431;-78
2023/08/09 11:46:43;;;;;;;3.92;1.30;;;21.50;99.90;;;;;;5008201;28;20442;-79
2023/08/09 11:49:09;;;;;;;3.97;1.60;;;21.50;99.90;;;;;;5026887;28;20419;-78
2023/08/09 11:51:36;;;;;;;2.80;1.40;;;21.30;99.90;;;;;;5018314;28;20420;-79
2023/08/09 11:54:02;;;;;;;2.90;1.33;;;21.00;99.90;;;;;;5040632;28;20471;-78
2023/08/09 11:56:36;;;;;;;2.90;1.40;;;21.30;99.90;;;;;;5067342;28;20434;-77
2023/08/09 11:59:04;;;;;;;3.65;1.20;;;21.30;99.90;;;;;;5049387;28;20756;-78
2023/08/09 12:01:36;;;;;;;4.38;1.48;;;21.20;99.90;;;;;;5046624;28;20997;-77
2023/08/09 12:04:09;;;;;;;3.38;1.30;;;21.30;99.90;;;;;;5043926;28;20421;-78
2023/08/09 12:06:39;;;;;;;2.60;1.33;;;21.40;99.90;;;;;;5033316;28;20481;-77
2023/08/09 12:09:53;;;;;;;2.38;1.38;;;21.30;99.90;;;;;;5046358;28;20419;-78
2023/08/09 12:12:35;;;;;;;3.35;1.27;;;21.30;99.90;;;;;;5021755;28;22263;-80
2023/08/09 12:15:01;;;;;;;5.90;1.40;;;21.10;99.90;;;;;;5046694;28;20465;-79
2023/08/09 12:17:29;;;;;;;2.88;1.60;;;21.10;99.90;;;;;;5050346;28;20469;-78
2023/08/09 12:20:00;;;;;;;2.53;1.27;;;20.60;99.90;;;;;;5048327;28;20510;-79
2023/08/09 12:22:27;;;;;;;3.05;1.52;;;21.00;99.90;;;;;;5051649;28;20428;-79
2023/08/09 12:24:54;;;;;;;5.50;1.70;;;20.40;99.90;;;;;;5052619;28;20412;-79
2023/08/09 12:27:20;;;;;;;3.83;1.60;;;21.60;99.90;;;;;;5048561;28;20410;-78
2023/08/09 12:29:47;;;;;;;3.85;1.40;;;21.70;99.90;;;;;;5018819;28;20937;-78
2023/08/09 12:32:13;;;;;;;3.60;1.50;;;21.60;99.90;;;;;;5045418;28;20426;-77
2023/08/09 12:34:39;;;;;;;6.37;1.50;;;21.30;99.90;;;;;;5054458;28;20440;-77
2023/08/09 12:37:05;;;;;;;4.40;1.45;;;21.20;99.90;;;;;;5044473;28;20421;-78
2023/08/09 12:39:31;;;;;;;3.55;1.40;;;20.90;99.90;;;;;;5042916;28;20425;-77
2023/08/09 12:41:57;;;;;;;3.43;1.50;;;21.10;99.90;;;;;;5052886;28;20514;-79
2023/08/09 12:44:26;;;;;;;5.03;1.30;;;20.70;99.90;;;;;;5051098;28;20957;-78
2023/08/09 12:46:52;;;;;;;4.55;1.48;;;21.00;99.90;;;;;;5037161;28;20956;-78
2023/08/09 12:49:18;;;;;;;5.07;1.57;;;21.30;99.90;;;;;;5043727;28;20762;-78
2023/08/09 12:51:44;;;;;;;3.60;1.40;;;21.30;99.90;;;;;;5047721;28;20433;-78
2023/08/09 12:54:11;;;;;;;5.32;1.40;;;21.60;99.90;;;;;;5005249;28;20460;-78
2023/08/09 12:56:38;;;;;;;4.75;1.40;;;22.00;99.90;;;;;;5022656;28;20931;-78
2023/08/09 12:59:07;;;;;;;3.92;1.40;;;22.00;99.90;;;;;;5029273;28;20423;-78
2023/08/09 13:01:33;;;;;;;3.20;1.20;;;22.30;99.90;;;;;;5015718;28;20517;-78
2023/08/09 13:03:59;;;;;;;2.38;1.10;;;21.90;99.90;;;;;;5044168;28;20425;-78
2023/08/09 13:06:25;;;;;;;4.78;1.55;;;21.70;99.90;;;;;;5000356;28;20408;-78
2023/08/09 13:08:51;;;;;;;4.75;1.73;;;21.60;99.90;;;;;;5010748;28;20508;-79
2023/08/09 13:11:17;;;;;;;3.30;1.30;;;21.30;99.90;;;;;;5028691;28;20516;-79
2023/08/09 13:13:43;;;;;;;3.38;1.25;;;21.60;99.90;;;;;;5008802;28;20866;-79
2023/08/09 13:16:09;;;;;;;3.92;1.45;;;21.50;99.90;;;;;;5033589;28;20417;-79
2023/08/09 13:18:37;;;;;;;3.20;1.15;;;21.40;99.90;;;;;;5025614;28;20481;-78